Libertador San Martin (panama) — 3FWH3 — position and weather

sailwx.info

Track history (hours):
 
Tides and Currents Weather Stations Pressure Air Temp Water Temp Dewpoint Dewpoint Depression Visibility Wind Speed Wind Dir Waves Ship Positions

Libertador San Martin (panama)

Last reported at 2018-Jun-28 05:57 UTC. Time now 2018-Jul-21 03:54 UTC.
Position N 37°34' E 007°35'.
Warning: this ship's position is 22 days out of date.

Length 151.6 m; beam 21 m.

Type: Cargo ship. MMSI: 372224000.

Date/timePositionNaut miles runAvg speedWind from/ knotsBaromVisibWave heightAir tempDewpointWater temp
2018-Jun-28 05:57N 37°34' E 007°35'510.7
2018-Jun-28 05:30N 37°33' E 007°29'3510.6
2018-Jun-28 02:13N 37°32' E 006°45'2810.8
2018-Jun-27 23:38N 37°30' E 006°10'210.7
2018-Jun-27 23:27N 37°30' E 006°07'510.7
2018-Jun-27 23:00N 37°30' E 006°01'510.7
2018-Jun-27 22:30N 37°29' E 005°54'510.6
2018-Jun-27 22:00N 37°29' E 005°48'710.4
2018-Jun-27 21:18N 37°29' E 005°39'6510.5
2018-Jun-27 15:07N 37°26' E 004°17'210.9
2018-Jun-27 14:54N 37°26' E 004°14'410.9
2018-Jun-27 14:29N 37°25' E 004°08'610.8
2018-Jun-27 13:56N 37°25' E 004°01'510.7
2018-Jun-27 13:28N 37°25' E 003°54'4210.1
2018-Jun-27 09:18N 37°23' E 003°02'4 9.9
2018-Jun-27 08:52N 37°22' E 002°56'4 9.9
2018-Jun-27 08:30N 37°22' E 002°52'510.0
2018-Jun-27 08:00N 37°22' E 002°46'910.3
2018-Jun-27 07:09N 37°21' E 002°34'210.5
2018-Jun-27 07:00N 37°21' E 002°32'510.6
2018-Jun-27 06:30N 37°21' E 002°26'510.6
2018-Jun-27 06:00N 37°21' E 002°19'510.6
2018-Jun-27 05:30N 37°21' E 002°13'510.6
2018-Jun-27 05:00N 37°20' E 002°06'510.6
2018-Jun-27 04:30N 37°20' E 001°59'510.7
2018-Jun-27 04:00N 37°18' E 001°53'510.7
2018-Jun-27 03:30N 37°17' E 001°46'510.8
2018-Jun-27 03:00N 37°15' E 001°40'510.8
2018-Jun-27 02:30N 37°14' E 001°33'510.8
2018-Jun-27 02:00N 37°12' E 001°27'611.0
2018-Jun-27 01:29N 37°10' E 001°20'511.1
2018-Jun-27 01:00N 37°09' E 001°13'510.8
2018-Jun-27 00:30N 37°08' E 001°07'510.5
2018-Jun-27 00:00N 37°06' E 001°01'510.7
2018-Jun-26 23:30N 37°04' E 000°54'510.7
2018-Jun-26 23:00N 37°03' E 000°48'510.8
2018-Jun-26 22:30N 37°01' E 000°41'1010.6
2018-Jun-26 21:36N 36°59' E 000°30'110.6
2018-Jun-26 21:30N 36°59' E 000°29'510.6
2018-Jun-26 21:00N 36°57' E 000°22'510.5
2018-Jun-26 20:30N 36°56' E 000°16'510.5
2018-Jun-26 20:00N 36°54' E 000°10'510.3
2018-Jun-26 19:30N 36°53' E 000°04'810.5
2018-Jun-26 18:46N 36°50' W 000°06'410.7
2018-Jun-26 18:24N 36°49' W 000°10'510.8
2018-Jun-26 17:56N 36°48' W 000°16'1910.9
2018-Jun-26 16:10N 36°42' W 000°40'211.5
2018-Jun-26 16:00N 36°42' W 000°42'1411.1
2018-Jun-26 14:42N 36°38' W 000°59'1510.6
2018-Jun-26 13:18N 36°33' W 001°17'411.5
2018-Jun-26 13:00N 36°32' W 001°21'300 7.4
2018-Jun-24 20:37N 36°11' W 007°32'411.3
2018-Jun-24 20:17N 36°12' W 007°37'311.1
2018-Jun-24 20:00N 36°13' W 007°40'911.2
2018-Jun-24 19:11N 36°15' W 007°51'5411.4
2018-Jun-24 14:25N 36°29' W 008°56'511.4
2018-Jun-24 14:01N 36°31' W 009°02'2610.7
2018-Jun-24 11:34N 36°44' W 009°30'111.1
2018-Jun-24 11:30N 36°45' W 009°30'510.3
2018-Jun-24 10:58N 36°50' W 009°33'3110.8
2018-Jun-24 08:08N 37°20' W 009°42'211.1
2018-Jun-24 07:56N 37°22' W 009°43'3811.2
2018-Jun-24 04:33N 37°59' W 009°53'010.9
2018-Jun-24 04:31N 37°59' W 009°54'611.3
2018-Jun-24 04:00N 38°05' W 009°55'611.5
2018-Jun-24 03:28N 38°10' W 009°57'511.5
2018-Jun-24 03:00N 38°16' W 009°59'611.4
2018-Jun-24 02:30N 38°21' W 010°00'611.4
2018-Jun-24 02:01N 38°27' W 010°02'611.3
2018-Jun-24 01:30N 38°32' W 010°03'611.4
2018-Jun-24 01:00N 38°38' W 010°05'611.4
2018-Jun-24 00:31N 38°44' W 010°06'611.3
2018-Jun-24 00:00N 38°49' W 010°06'611.2
2018-Jun-23 23:30N 38°55' W 010°06'611.1
2018-Jun-23 23:00N 39°00' W 010°06'611.3
2018-Jun-23 22:31N 39°06' W 010°06'611.1
2018-Jun-23 22:00N 39°12' W 010°06'611.4
2018-Jun-23 21:26N 39°18' W 010°06'4311.2
2018-Jun-23 17:36N 40°01' W 010°06'  
2018-Jun-21 03:54N 49°44' W 003°37'711.3
2018-Jun-21 03:18N 49°48' W 003°28'410.9
2018-Jun-21 02:59N 49°50' W 003°23'510.2
2018-Jun-21 02:30N 49°52' W 003°17'5 9.9
2018-Jun-21 02:00N 49°54' W 003°10'5 9.7
2018-Jun-21 01:30N 49°57' W 003°03'5 9.6
2018-Jun-21 01:00N 49°59' W 002°57'5 9.4
2018-Jun-21 00:30N 50°01' W 002°50'5 9.2
2018-Jun-21 00:01N 50°01' W 002°43'6 9.6
2018-Jun-20 23:21N 50°03' W 002°33'1810.6
2018-Jun-20 21:42N 50°08' W 002°07'3312.8
2018-Jun-20 19:08N 50°17' W 001°18'213.3
2018-Jun-20 19:00N 50°18' W 001°15'613.2
2018-Jun-20 18:31N 50°19' W 001°05'612.7
2018-Jun-20 18:01N 50°21' W 000°56'611.8
2018-Jun-20 17:28N 50°23' W 000°46'510.9
2018-Jun-20 17:01N 50°24' W 000°39'610.5
2018-Jun-20 16:28N 50°26' W 000°30'510.2
2018-Jun-20 16:01N 50°27' W 000°23'5 9.8
2018-Jun-20 15:30N 50°28' W 000°16'5 9.5
2018-Jun-20 15:01N 50°30' W 000°08'5 9.2
2018-Jun-20 14:30N 50°31' W 000°01'5 9.1
2018-Jun-20 14:01N 50°32' E 000°05'4 8.9
2018-Jun-20 13:31N 50°33' E 000°12'5 9.1
2018-Jun-20 13:01N 50°35' E 000°19'5 9.6
2018-Jun-20 12:30N 50°36' E 000°26'510.5
2018-Jun-20 12:01N 50°38' E 000°34'611.3
2018-Jun-20 11:31N 50°40' E 000°42'611.8
2018-Jun-20 11:01N 50°43' E 000°50'612.1
2018-Jun-20 10:31N 50°47' E 000°58'612.0
2018-Jun-20 10:00N 50°50' E 001°06'611.7
2018-Jun-20 09:29N 50°54' E 001°14'611.5
2018-Jun-20 09:01N 50°57' E 001°21'611.0
2018-Jun-20 08:31N 51°01' E 001°27'5 9.8
2018-Jun-20 08:01N 51°05' E 001°32'4 9.0
2018-Jun-20 07:31N 51°08' E 001°37'4 8.6
2018-Jun-20 07:01N 51°11' E 001°42'4 8.6
2018-Jun-20 06:31N 51°14' E 001°46'4 8.4
2018-Jun-20 06:00N 51°18' E 001°50'4 8.5
2018-Jun-20 05:31N 51°21' E 001°53'4 8.8
2018-Jun-20 05:01N 51°25' E 001°57'5 9.3
2018-Jun-20 04:30N 51°29' E 002°02'5 9.9
2018-Jun-20 04:00N 51°32' E 002°07'510.2
2018-Jun-20 03:30N 51°36' E 002°13'511.1
2018-Jun-20 03:01N 51°40' E 002°19'611.8
2018-Jun-20 02:29N 51°44' E 002°26'611.9
2018-Jun-20 02:00N 51°49' E 002°32'1512.0
2018-Jun-20 00:45N 51°60' E 002°48'810.7
2018-Jun-20 00:01N 52°02' E 003°01'311.0
2018-Jun-19 23:44N 52°02' E 003°06'310.9
2018-Jun-19 23:25N 52°03' E 003°11'511.0
2018-Jun-19 23:00N 52°03' E 003°19'510.8
2018-Jun-19 22:30N 52°03' E 003°27'510.6
2018-Jun-19 22:00N 52°03' E 003°36'510.6
2018-Jun-19 21:30N 52°03' E 003°45'4 8.7
2018-Jun-19 21:01N 52°02' E 003°52'3 5.7
2018-Jun-19 20:31N 52°02' E 003°56'4 8.6
2018-Jun-19 20:01N 51°60' E 004°02'4 8.7
2018-Jun-19 19:31N 51°58' E 004°09'4 7.6
2018-Jun-19 19:00N 51°56' E 004°14'4 7.1
2018-Jun-19 18:31N 51°54' E 004°18'3 6.8
2018-Jun-19 18:01N 51°54' E 004°24'1 1.8
2018-Jun-19 17:30N 51°55' E 004°25'0 0.0
2018-Jun-19 17:00N 51°55' E 004°25'0 0.0
2018-Jun-19 16:30N 51°55' E 004°25'0 0.0
2018-Jun-19 16:00N 51°55' E 004°25'0 0.0
2018-Jun-19 15:30N 51°55' E 004°25'0 0.0
2018-Jun-19 15:00N 51°55' E 004°25'0 0.0
2018-Jun-19 14:30N 51°55' E 004°25'0 0.0
2018-Jun-19 14:00N 51°55' E 004°25'0 0.0
2018-Jun-19 13:30N 51°55' E 004°25'0 0.0
2018-Jun-19 13:00N 51°55' E 004°25'0 0.0
2018-Jun-19 12:30N 51°55' E 004°25'0 0.0
2018-Jun-19 12:00N 51°55' E 004°25'0 0.0
2018-Jun-19 11:30N 51°55' E 004°25'0 0.0
2018-Jun-19 11:00N 51°55' E 004°25'0 0.0
2018-Jun-19 10:30N 51°55' E 004°25'0 0.0
2018-Jun-19 10:00N 51°55' E 004°25'0 0.0
2018-Jun-19 09:30N 51°55' E 004°25'0 0.0
2018-Jun-19 09:00N 51°55' E 004°25'0 0.0
2018-Jun-19 08:30N 51°55' E 004°25'0 0.0
2018-Jun-19 08:00N 51°55' E 004°25'0 0.0
2018-Jun-19 07:30N 51°55' E 004°25'0 0.0
2018-Jun-19 07:00N 51°55' E 004°25'0 0.0
2018-Jun-19 06:30N 51°55' E 004°25'0 0.0
2018-Jun-19 06:00N 51°55' E 004°25'0 0.0
2018-Jun-19 05:30N 51°55' E 004°25'0 0.0
2018-Jun-19 05:00N 51°55' E 004°25'0 0.0
2018-Jun-19 04:30N 51°55' E 004°25'0 0.0
2018-Jun-19 04:00N 51°55' E 004°25'0 0.0
2018-Jun-19 03:30N 51°55' E 004°25'0 0.0
2018-Jun-19 03:00N 51°55' E 004°25'0 0.0
2018-Jun-19 02:30N 51°55' E 004°25'0 0.0
2018-Jun-19 02:00N 51°55' E 004°25'0 0.0
2018-Jun-19 01:30N 51°55' E 004°25'0 0.0
2018-Jun-19 01:00N 51°55' E 004°25'0 0.0
2018-Jun-19 00:30N 51°55' E 004°25'0 0.0
2018-Jun-19 00:00N 51°55' E 004°25'0 0.0
2018-Jun-18 23:30N 51°55' E 004°25'0 0.0
2018-Jun-18 23:00N 51°55' E 004°25'0 0.0
2018-Jun-18 22:30N 51°55' E 004°25'0 0.0
2018-Jun-18 22:00N 51°55' E 004°25'0 0.0
2018-Jun-18 21:30N 51°55' E 004°25'0 0.0
2018-Jun-18 21:00N 51°55' E 004°25'0 0.0
2018-Jun-18 20:30N 51°55' E 004°25'0 0.0
2018-Jun-18 20:00N 51°55' E 004°25'0 0.0
2018-Jun-18 19:30N 51°55' E 004°25'0 0.0
2018-Jun-18 19:00N 51°55' E 004°25'0 0.0
2018-Jun-18 18:30N 51°55' E 004°25'0 0.0
2018-Jun-18 18:00N 51°55' E 004°25'0 0.0
2018-Jun-18 17:30N 51°55' E 004°25'0 0.0
2018-Jun-18 17:00N 51°55' E 004°25'0 0.0
2018-Jun-18 16:30N 51°55' E 004°25'0 0.0
2018-Jun-18 16:00N 51°55' E 004°25'0 0.0
2018-Jun-18 15:30N 51°55' E 004°25'0 0.0
2018-Jun-18 15:00N 51°55' E 004°25'0 0.0
2018-Jun-18 14:30N 51°55' E 004°25'0 0.0
2018-Jun-18 14:00N 51°55' E 004°25'0 0.0
2018-Jun-18 13:30N 51°55' E 004°25'0 0.0
2018-Jun-18 13:00N 51°55' E 004°25'0 0.0
2018-Jun-18 12:30N 51°55' E 004°25'0 0.0
2018-Jun-18 12:00N 51°55' E 004°25'0 0.0
2018-Jun-18 11:30N 51°55' E 004°25'0 0.0
2018-Jun-18 11:00N 51°55' E 004°25'0 0.0
2018-Jun-18 10:30N 51°55' E 004°25'0 0.0
2018-Jun-18 10:00N 51°55' E 004°25'0 0.0
2018-Jun-18 09:30N 51°55' E 004°25'0 0.0
2018-Jun-18 09:00N 51°55' E 004°25'0 0.0
2018-Jun-18 08:30N 51°55' E 004°25'0 0.0
2018-Jun-18 08:00N 51°55' E 004°25'0 0.0
2018-Jun-18 07:30N 51°55' E 004°25'0 0.0
2018-Jun-18 07:00N 51°55' E 004°25'0 0.0
2018-Jun-18 06:30N 51°55' E 004°25'0 0.0
2018-Jun-18 06:00N 51°55' E 004°25'  
Track history (hours):
 
Tides and Currents Weather Stations Pressure Air Temp Water Temp Dewpoint Dewpoint Depression Visibility Wind Speed Wind Dir Waves Ship Positions

Libertador San Martin (panama)

Last reported at 2018-Jun-28 05:57 UTC. Time now 2018-Jul-21 03:54 UTC.
Position N 37°34' E 007°35'.
Warning: this ship's position is 22 days out of date.

Length 151.6 m; beam 21 m.

Type: Cargo ship. MMSI: 372224000.

Date/timePositionNaut miles runAvg speedWind from/ knotsBaromVisibWave heightAir tempDewpointWater temp
2018-Jun-28 05:57N 37°34' E 007°35'510.7
2018-Jun-28 05:30N 37°33' E 007°29'3510.6
2018-Jun-28 02:13N 37°32' E 006°45'2810.8
2018-Jun-27 23:38N 37°30' E 006°10'210.7
2018-Jun-27 23:27N 37°30' E 006°07'510.7
2018-Jun-27 23:00N 37°30' E 006°01'510.7
2018-Jun-27 22:30N 37°29' E 005°54'510.6
2018-Jun-27 22:00N 37°29' E 005°48'710.4
2018-Jun-27 21:18N 37°29' E 005°39'6510.5
2018-Jun-27 15:07N 37°26' E 004°17'210.9
2018-Jun-27 14:54N 37°26' E 004°14'410.9
2018-Jun-27 14:29N 37°25' E 004°08'610.8
2018-Jun-27 13:56N 37°25' E 004°01'510.7
2018-Jun-27 13:28N 37°25' E 003°54'4210.1
2018-Jun-27 09:18N 37°23' E 003°02'4 9.9
2018-Jun-27 08:52N 37°22' E 002°56'4 9.9
2018-Jun-27 08:30N 37°22' E 002°52'510.0
2018-Jun-27 08:00N 37°22' E 002°46'910.3
2018-Jun-27 07:09N 37°21' E 002°34'210.5
2018-Jun-27 07:00N 37°21' E 002°32'510.6
2018-Jun-27 06:30N 37°21' E 002°26'510.6
2018-Jun-27 06:00N 37°21' E 002°19'510.6
2018-Jun-27 05:30N 37°21' E 002°13'510.6
2018-Jun-27 05:00N 37°20' E 002°06'510.6
2018-Jun-27 04:30N 37°20' E 001°59'510.7
2018-Jun-27 04:00N 37°18' E 001°53'510.7
2018-Jun-27 03:30N 37°17' E 001°46'510.8
2018-Jun-27 03:00N 37°15' E 001°40'510.8
2018-Jun-27 02:30N 37°14' E 001°33'510.8
2018-Jun-27 02:00N 37°12' E 001°27'611.0
2018-Jun-27 01:29N 37°10' E 001°20'511.1
2018-Jun-27 01:00N 37°09' E 001°13'510.8
2018-Jun-27 00:30N 37°08' E 001°07'510.5
2018-Jun-27 00:00N 37°06' E 001°01'510.7
2018-Jun-26 23:30N 37°04' E 000°54'510.7
2018-Jun-26 23:00N 37°03' E 000°48'510.8
2018-Jun-26 22:30N 37°01' E 000°41'1010.6
2018-Jun-26 21:36N 36°59' E 000°30'110.6
2018-Jun-26 21:30N 36°59' E 000°29'510.6
2018-Jun-26 21:00N 36°57' E 000°22'510.5
2018-Jun-26 20:30N 36°56' E 000°16'510.5
2018-Jun-26 20:00N 36°54' E 000°10'510.3
2018-Jun-26 19:30N 36°53' E 000°04'810.5
2018-Jun-26 18:46N 36°50' W 000°06'410.7
2018-Jun-26 18:24N 36°49' W 000°10'510.8
2018-Jun-26 17:56N 36°48' W 000°16'1910.9
2018-Jun-26 16:10N 36°42' W 000°40'211.5
2018-Jun-26 16:00N 36°42' W 000°42'1411.1
2018-Jun-26 14:42N 36°38' W 000°59'1510.6
2018-Jun-26 13:18N 36°33' W 001°17'411.5
2018-Jun-26 13:00N 36°32' W 001°21'300 7.4
2018-Jun-24 20:37N 36°11' W 007°32'411.3
2018-Jun-24 20:17N 36°12' W 007°37'311.1
2018-Jun-24 20:00N 36°13' W 007°40'911.2
2018-Jun-24 19:11N 36°15' W 007°51'5411.4
2018-Jun-24 14:25N 36°29' W 008°56'511.4
2018-Jun-24 14:01N 36°31' W 009°02'2610.7
2018-Jun-24 11:34N 36°44' W 009°30'111.1
2018-Jun-24 11:30N 36°45' W 009°30'510.3
2018-Jun-24 10:58N 36°50' W 009°33'3110.8
2018-Jun-24 08:08N 37°20' W 009°42'211.1
2018-Jun-24 07:56N 37°22' W 009°43'3811.2
2018-Jun-24 04:33N 37°59' W 009°53'010.9
2018-Jun-24 04:31N 37°59' W 009°54'611.3
2018-Jun-24 04:00N 38°05' W 009°55'611.5
2018-Jun-24 03:28N 38°10' W 009°57'511.5
2018-Jun-24 03:00N 38°16' W 009°59'611.4
2018-Jun-24 02:30N 38°21' W 010°00'611.4
2018-Jun-24 02:01N 38°27' W 010°02'611.3
2018-Jun-24 01:30N 38°32' W 010°03'611.4
2018-Jun-24 01:00N 38°38' W 010°05'611.4
2018-Jun-24 00:31N 38°44' W 010°06'611.3
2018-Jun-24 00:00N 38°49' W 010°06'611.2
2018-Jun-23 23:30N 38°55' W 010°06'611.1
2018-Jun-23 23:00N 39°00' W 010°06'611.3
2018-Jun-23 22:31N 39°06' W 010°06'611.1
2018-Jun-23 22:00N 39°12' W 010°06'611.4
2018-Jun-23 21:26N 39°18' W 010°06'4311.2
2018-Jun-23 17:36N 40°01' W 010°06'  
2018-Jun-21 03:54N 49°44' W 003°37'711.3
2018-Jun-21 03:18N 49°48' W 003°28'410.9
2018-Jun-21 02:59N 49°50' W 003°23'510.2
2018-Jun-21 02:30N 49°52' W 003°17'5 9.9
2018-Jun-21 02:00N 49°54' W 003°10'5 9.7
2018-Jun-21 01:30N 49°57' W 003°03'5 9.6
2018-Jun-21 01:00N 49°59' W 002°57'5 9.4
2018-Jun-21 00:30N 50°01' W 002°50'5 9.2
2018-Jun-21 00:01N 50°01' W 002°43'6 9.6
2018-Jun-20 23:21N 50°03' W 002°33'1810.6
2018-Jun-20 21:42N 50°08' W 002°07'3312.8
2018-Jun-20 19:08N 50°17' W 001°18'213.3
2018-Jun-20 19:00N 50°18' W 001°15'613.2
2018-Jun-20 18:31N 50°19' W 001°05'612.7
2018-Jun-20 18:01N 50°21' W 000°56'611.8
2018-Jun-20 17:28N 50°23' W 000°46'510.9
2018-Jun-20 17:01N 50°24' W 000°39'610.5
2018-Jun-20 16:28N 50°26' W 000°30'510.2
2018-Jun-20 16:01N 50°27' W 000°23'5 9.8
2018-Jun-20 15:30N 50°28' W 000°16'5 9.5
2018-Jun-20 15:01N 50°30' W 000°08'5 9.2
2018-Jun-20 14:30N 50°31' W 000°01'5 9.1
2018-Jun-20 14:01N 50°32' E 000°05'4 8.9
2018-Jun-20 13:31N 50°33' E 000°12'5 9.1
2018-Jun-20 13:01N 50°35' E 000°19'5 9.6
2018-Jun-20 12:30N 50°36' E 000°26'510.5
2018-Jun-20 12:01N 50°38' E 000°34'611.3
2018-Jun-20 11:31N 50°40' E 000°42'611.8
2018-Jun-20 11:01N 50°43' E 000°50'612.1
2018-Jun-20 10:31N 50°47' E 000°58'612.0
2018-Jun-20 10:00N 50°50' E 001°06'611.7
2018-Jun-20 09:29N 50°54' E 001°14'611.5
2018-Jun-20 09:01N 50°57' E 001°21'611.0
2018-Jun-20 08:31N 51°01' E 001°27'5 9.8
2018-Jun-20 08:01N 51°05' E 001°32'4 9.0
2018-Jun-20 07:31N 51°08' E 001°37'4 8.6
2018-Jun-20 07:01N 51°11' E 001°42'4 8.6
2018-Jun-20 06:31N 51°14' E 001°46'4 8.4
2018-Jun-20 06:00N 51°18' E 001°50'4 8.5
2018-Jun-20 05:31N 51°21' E 001°53'4 8.8
2018-Jun-20 05:01N 51°25' E 001°57'5 9.3
2018-Jun-20 04:30N 51°29' E 002°02'5 9.9
2018-Jun-20 04:00N 51°32' E 002°07'510.2
2018-Jun-20 03:30N 51°36' E 002°13'511.1
2018-Jun-20 03:01N 51°40' E 002°19'611.8
2018-Jun-20 02:29N 51°44' E 002°26'611.9
2018-Jun-20 02:00N 51°49' E 002°32'1512.0
2018-Jun-20 00:45N 51°60' E 002°48'810.7
2018-Jun-20 00:01N 52°02' E 003°01'311.0
2018-Jun-19 23:44N 52°02' E 003°06'310.9
2018-Jun-19 23:25N 52°03' E 003°11'511.0
2018-Jun-19 23:00N 52°03' E 003°19'510.8
2018-Jun-19 22:30N 52°03' E 003°27'510.6
2018-Jun-19 22:00N 52°03' E 003°36'510.6
2018-Jun-19 21:30N 52°03' E 003°45'4 8.7
2018-Jun-19 21:01N 52°02' E 003°52'3 5.7
2018-Jun-19 20:31N 52°02' E 003°56'4 8.6
2018-Jun-19 20:01N 51°60' E 004°02'4 8.7
2018-Jun-19 19:31N 51°58' E 004°09'4 7.6
2018-Jun-19 19:00N 51°56' E 004°14'4 7.1
2018-Jun-19 18:31N 51°54' E 004°18'3 6.8
2018-Jun-19 18:01N 51°54' E 004°24'1 1.8
2018-Jun-19 17:30N 51°55' E 004°25'0 0.0
2018-Jun-19 17:00N 51°55' E 004°25'0 0.0
2018-Jun-19 16:30N 51°55' E 004°25'0 0.0
2018-Jun-19 16:00N 51°55' E 004°25'0 0.0
2018-Jun-19 15:30N 51°55' E 004°25'0 0.0
2018-Jun-19 15:00N 51°55' E 004°25'0 0.0
2018-Jun-19 14:30N 51°55' E 004°25'0 0.0
2018-Jun-19 14:00N 51°55' E 004°25'0 0.0
2018-Jun-19 13:30N 51°55' E 004°25'0 0.0
2018-Jun-19 13:00N 51°55' E 004°25'0 0.0
2018-Jun-19 12:30N 51°55' E 004°25'0 0.0
2018-Jun-19 12:00N 51°55' E 004°25'0 0.0
2018-Jun-19 11:30N 51°55' E 004°25'0 0.0
2018-Jun-19 11:00N 51°55' E 004°25'0 0.0
2018-Jun-19 10:30N 51°55' E 004°25'0 0.0
2018-Jun-19 10:00N 51°55' E 004°25'0 0.0
2018-Jun-19 09:30N 51°55' E 004°25'0 0.0
2018-Jun-19 09:00N 51°55' E 004°25'0 0.0
2018-Jun-19 08:30N 51°55' E 004°25'0 0.0
2018-Jun-19 08:00N 51°55' E 004°25'0 0.0
2018-Jun-19 07:30N 51°55' E 004°25'0 0.0
2018-Jun-19 07:00N 51°55' E 004°25'0 0.0
2018-Jun-19 06:30N 51°55' E 004°25'0 0.0
2018-Jun-19 06:00N 51°55' E 004°25'0 0.0
2018-Jun-19 05:30N 51°55' E 004°25'0 0.0
2018-Jun-19 05:00N 51°55' E 004°25'0 0.0
2018-Jun-19 04:30N 51°55' E 004°25'0 0.0
2018-Jun-19 04:00N 51°55' E 004°25'0 0.0
2018-Jun-19 03:30N 51°55' E 004°25'0 0.0
2018-Jun-19 03:00N 51°55' E 004°25'0 0.0
2018-Jun-19 02:30N 51°55' E 004°25'0 0.0
2018-Jun-19 02:00N 51°55' E 004°25'0 0.0
2018-Jun-19 01:30N 51°55' E 004°25'0 0.0
2018-Jun-19 01:00N 51°55' E 004°25'0 0.0
2018-Jun-19 00:30N 51°55' E 004°25'0 0.0
2018-Jun-19 00:00N 51°55' E 004°25'0 0.0
2018-Jun-18 23:30N 51°55' E 004°25'0 0.0
2018-Jun-18 23:00N 51°55' E 004°25'0 0.0
2018-Jun-18 22:30N 51°55' E 004°25'0 0.0
2018-Jun-18 22:00N 51°55' E 004°25'0 0.0
2018-Jun-18 21:30N 51°55' E 004°25'0 0.0
2018-Jun-18 21:00N 51°55' E 004°25'0 0.0
2018-Jun-18 20:30N 51°55' E 004°25'0 0.0
2018-Jun-18 20:00N 51°55' E 004°25'0 0.0
2018-Jun-18 19:30N 51°55' E 004°25'0 0.0
2018-Jun-18 19:00N 51°55' E 004°25'0 0.0
2018-Jun-18 18:30N 51°55' E 004°25'0 0.0
2018-Jun-18 18:00N 51°55' E 004°25'0 0.0
2018-Jun-18 17:30N 51°55' E 004°25'0 0.0
2018-Jun-18 17:00N 51°55' E 004°25'0 0.0
2018-Jun-18 16:30N 51°55' E 004°25'0 0.0
2018-Jun-18 16:00N 51°55' E 004°25'0 0.0
2018-Jun-18 15:30N 51°55' E 004°25'0 0.0
2018-Jun-18 15:00N 51°55' E 004°25'0 0.0
2018-Jun-18 14:30N 51°55' E 004°25'0 0.0
2018-Jun-18 14:00N 51°55' E 004°25'0 0.0
2018-Jun-18 13:30N 51°55' E 004°25'0 0.0
2018-Jun-18 13:00N 51°55' E 004°25'0 0.0
2018-Jun-18 12:30N 51°55' E 004°25'0 0.0
2018-Jun-18 12:00N 51°55' E 004°25'0 0.0
2018-Jun-18 11:30N 51°55' E 004°25'0 0.0
2018-Jun-18 11:00N 51°55' E 004°25'0 0.0
2018-Jun-18 10:30N 51°55' E 004°25'0 0.0
2018-Jun-18 10:00N 51°55' E 004°25'0 0.0
2018-Jun-18 09:30N 51°55' E 004°25'0 0.0
2018-Jun-18 09:00N 51°55' E 004°25'0 0.0
2018-Jun-18 08:30N 51°55' E 004°25'0 0.0
2018-Jun-18 08:00N 51°55' E 004°25'0 0.0
2018-Jun-18 07:30N 51°55' E 004°25'0 0.0
2018-Jun-18 07:00N 51°55' E 004°25'0 0.0
2018-Jun-18 06:30N 51°55' E 004°25'0 0.0
2018-Jun-18 06:00N 51°55' E 004°25'  

Dump ship's entire track history